< < Back
Terminal Aerodrome Forecast


Current Version              Previous Versions:   1  2  3  4  5  6  7  8  9  

Terminal Aerodrome Forecast

872
FTUS44 KMOB 291131
TAFMOB
TAF
KMOB 291131Z 2912/3012 33003KT P6SM FEW030 SCT110 BKN250
     FM291400 02005KT P6SM VCTS BKN040CB
      TEMPO 2915/2919 VRB15G25KT 3SM TSRA BKN030CB
     FM300100 18003KT P6SM VCTS BKN050CB BKN150=

Latest METAR

585
SAUS80 KWBC 300600 RRA
MTRMOB
METAR KMOB 300556Z AUTO 00000KT 10SM CLR 23/22 A2995 RMK AO2 SLP140
T02330222 10256 20233 403280222 58006


USA.gov is the U.S. government's official web portal to all federal, state and local government web resources and services.